sensor_id;sensor_type;location;lat;lon;timestamp;pressure;altitude;pressure_sealevel;temperature;humidity
15884;BME280;8040;50.254;10.960;2023-03-23T00:01:15;97521.06;;;14.49;49.76
15884;BME280;8040;50.254;10.960;2023-03-23T00:03:44;97514.38;;;14.46;49.52
15884;BME280;8040;50.254;10.960;2023-03-23T00:06:10;97515.63;;;14.49;49.76
15884;BME280;8040;50.254;10.960;2023-03-23T00:08:38;97515.16;;;14.47;49.88
15884;BME280;8040;50.254;10.960;2023-03-23T00:11:17;97513.78;;;14.53;50.09
15884;BME280;8040;50.254;10.960;2023-03-23T00:13:44;97511.97;;;14.45;50.02
15884;BME280;8040;50.254;10.960;2023-03-23T00:16:10;97510.16;;;14.49;50.04
15884;BME280;8040;50.254;10.960;2023-03-23T00:18:51;97499.91;;;14.46;50.21
15884;BME280;8040;50.254;10.960;2023-03-23T00:21:19;97495.25;;;14.46;50.50
15884;BME280;8040;50.254;10.960;2023-03-23T00:23:45;97496.41;;;14.45;50.27
15884;BME280;8040;50.254;10.960;2023-03-23T00:26:10;97484.34;;;14.46;50.59
15884;BME280;8040;50.254;10.960;2023-03-23T00:28:35;97485.81;;;14.44;50.34
15884;BME280;8040;50.254;10.960;2023-03-23T00:31:02;97494.44;;;14.46;50.44
15884;BME280;8040;50.254;10.960;2023-03-23T00:33:29;97488.56;;;14.44;50.71
15884;BME280;8040;50.254;10.960;2023-03-23T00:35:55;97485.38;;;14.42;50.62
15884;BME280;8040;50.254;10.960;2023-03-23T00:38:23;97484.47;;;14.38;51.08
15884;BME280;8040;50.254;10.960;2023-03-23T00:40:49;97485.59;;;14.37;50.86
15884;BME280;8040;50.254;10.960;2023-03-23T00:43:15;97479.00;;;14.38;50.77
15884;BME280;8040;50.254;10.960;2023-03-23T00:45:41;97476.16;;;14.34;50.83
15884;BME280;8040;50.254;10.960;2023-03-23T00:48:07;97466.50;;;14.37;51.15
15884;BME280;8040;50.254;10.960;2023-03-23T00:50:32;97478.09;;;14.34;50.88
15884;BME280;8040;50.254;10.960;2023-03-23T00:52:57;97472.53;;;14.30;50.99
15884;BME280;8040;50.254;10.960;2023-03-23T00:55:23;97472.53;;;14.30;51.03
15884;BME280;8040;50.254;10.960;2023-03-23T00:57:49;97470.81;;;14.26;50.84
15884;BME280;8040;50.254;10.960;2023-03-23T01:00:15;97472.88;;;14.29;50.51
15884;BME280;8040;50.254;10.960;2023-03-23T01:02:41;97464.81;;;14.32;50.42
15884;BME280;8040;50.254;10.960;2023-03-23T01:05:09;97467.66;;;14.36;50.31
15884;BME280;8040;50.254;10.960;2023-03-23T01:07:34;97471.97;;;14.37;49.83
15884;BME280;8040;50.254;10.960;2023-03-23T01:10:00;97463.44;;;14.38;49.94
15884;BME280;8040;50.254;10.960;2023-03-23T01:12:26;97461.28;;;14.44;50.19
15884;BME280;8040;50.254;10.960;2023-03-23T01:14:52;97461.72;;;14.46;50.03
15884;BME280;8040;50.254;10.960;2023-03-23T01:17:17;97462.97;;;14.48;49.80
15884;BME280;8040;50.254;10.960;2023-03-23T01:19:43;97459.09;;;14.49;49.67
15884;BME280;8040;50.254;10.960;2023-03-23T01:22:09;97461.16;;;14.52;49.84
15884;BME280;8040;50.254;10.960;2023-03-23T01:24:34;97458.41;;;14.52;49.96
15884;BME280;8040;50.254;10.960;2023-03-23T01:27:00;97455.69;;;14.52;50.18
15884;BME280;8040;50.254;10.960;2023-03-23T01:29:31;97449.44;;;14.52;50.16
15884;BME280;8040;50.254;10.960;2023-03-23T01:31:56;97454.53;;;14.53;50.65
15884;BME280;8040;50.254;10.960;2023-03-23T01:34:22;97454.09;;;14.51;50.48
15884;BME280;8040;50.254;10.960;2023-03-23T01:36:47;97450.56;;;14.51;51.08
15884;BME280;8040;50.254;10.960;2023-03-23T01:39:12;97448.97;;;14.50;50.79
15884;BME280;8040;50.254;10.960;2023-03-23T01:41:38;97441.94;;;14.49;50.71
15884;BME280;8040;50.254;10.960;2023-03-23T01:45:13;97445.44;;;14.49;50.53
15884;BME280;8040;50.254;10.960;2023-03-23T01:46:53;97442.03;;;14.52;51.16
15884;BME280;8040;50.254;10.960;2023-03-23T01:49:27;97443.97;;;14.52;51.54
15884;BME280;8040;50.254;10.960;2023-03-23T01:51:54;97443.28;;;14.55;51.40
15884;BME280;8040;50.254;10.960;2023-03-23T01:54:21;97445.56;;;14.53;51.22
15884;BME280;8040;50.254;10.960;2023-03-23T01:56:49;97439.66;;;14.51;51.40
15884;BME280;8040;50.254;10.960;2023-03-23T01:59:15;97437.63;;;14.48;51.52
15884;BME280;8040;50.254;10.960;2023-03-23T02:01:41;97429.66;;;14.43;51.36
15884;BME280;8040;50.254;10.960;2023-03-23T02:04:10;97427.16;;;14.38;51.82
15884;BME280;8040;50.254;10.960;2023-03-23T02:06:36;97431.03;;;14.37;52.00
15884;BME280;8040;50.254;10.960;2023-03-23T02:09:01;97433.44;;;14.38;52.37
15884;BME280;8040;50.254;10.960;2023-03-23T02:11:27;97429.47;;;14.36;52.30
15884;BME280;8040;50.254;10.960;2023-03-23T02:13:53;97433.78;;;14.37;52.36
15884;BME280;8040;50.254;10.960;2023-03-23T02:27:13;97411.03;;;14.33;52.47
15884;BME280;8040;50.254;10.960;2023-03-23T02:29:46;97400.59;;;14.35;52.39
15884;BME280;8040;50.254;10.960;2023-03-23T02:34:56;97395.00;;;14.31;52.31
15884;BME280;8040;50.254;10.960;2023-03-23T02:37:28;97403.06;;;14.28;53.18
15884;BME280;8040;50.254;10.960;2023-03-23T02:39:57;97388.31;;;14.29;52.99
15884;BME280;8040;50.254;10.960;2023-03-23T02:42:27;97386.97;;;14.23;52.74
15884;BME280;8040;50.254;10.960;2023-03-23T02:44:56;97402.53;;;14.22;53.07
15884;BME280;8040;50.254;10.960;2023-03-23T02:47:24;97390.66;;;14.18;52.93
15884;BME280;8040;50.254;10.960;2023-03-23T02:49:52;97398.56;;;14.20;52.90
15884;BME280;8040;50.254;10.960;2023-03-23T02:52:22;97377.41;;;14.17;52.76
15884;BME280;8040;50.254;10.960;2023-03-23T02:54:49;97374.91;;;14.24;52.57
15884;BME280;8040;50.254;10.960;2023-03-23T02:57:16;97380.81;;;14.26;52.69
15884;BME280;8040;50.254;10.960;2023-03-23T02:59:42;97378.53;;;14.28;52.93
15884;BME280;8040;50.254;10.960;2023-03-23T03:10:24;97387.31;;;14.21;52.68
15884;BME280;8040;50.254;10.960;2023-03-23T03:12:53;97377.66;;;14.24;53.04
15884;BME280;8040;50.254;10.960;2023-03-23T03:17:49;97379.00;;;14.18;52.72
15884;BME280;8040;50.254;10.960;2023-03-23T03:20:17;97385.13;;;14.15;52.78
15884;BME280;8040;50.254;10.960;2023-03-23T03:22:44;97375.00;;;14.15;53.11
15884;BME280;8040;50.254;10.960;2023-03-23T03:25:11;97374.19;;;14.15;52.87
15884;BME280;8040;50.254;10.960;2023-03-23T03:27:41;97372.63;;;14.14;53.09
15884;BME280;8040;50.254;10.960;2023-03-23T03:30:07;97368.75;;;14.15;53.63
15884;BME280;8040;50.254;10.960;2023-03-23T03:32:37;97373.22;;;14.07;53.35
15884;BME280;8040;50.254;10.960;2023-03-23T03:35:05;97360.25;;;14.04;53.13
15884;BME280;8040;50.254;10.960;2023-03-23T03:37:35;97378.09;;;14.02;53.32
15884;BME280;8040;50.254;10.960;2023-03-23T03:40:03;97382.41;;;14.03;53.47
15884;BME280;8040;50.254;10.960;2023-03-23T03:42:29;97387.19;;;14.06;54.05
15884;BME280;8040;50.254;10.960;2023-03-23T03:44:55;97382.50;;;14.06;54.15
15884;BME280;8040;50.254;10.960;2023-03-23T03:47:20;97386.03;;;14.07;53.91
15884;BME280;8040;50.254;10.960;2023-03-23T03:49:45;97388.31;;;14.05;53.44
15884;BME280;8040;50.254;10.960;2023-03-23T03:52:11;97374.44;;;14.10;53.92
15884;BME280;8040;50.254;10.960;2023-03-23T03:54:36;97375.56;;;14.09;53.19
15884;BME280;8040;50.254;10.960;2023-03-23T03:57:01;97377.53;;;14.08;53.21
15884;BME280;8040;50.254;10.960;2023-03-23T03:59:27;97373.31;;;14.11;52.82
15884;BME280;8040;50.254;10.960;2023-03-23T04:01:52;97366.72;;;14.12;53.17
15884;BME280;8040;50.254;10.960;2023-03-23T04:04:20;97381.03;;;14.09;52.64
15884;BME280;8040;50.254;10.960;2023-03-23T04:06:47;97386.25;;;14.14;52.50
15884;BME280;8040;50.254;10.960;2023-03-23T04:09:14;97371.47;;;14.15;52.21
15884;BME280;8040;50.254;10.960;2023-03-23T04:11:39;97369.56;;;14.15;52.33
15884;BME280;8040;50.254;10.960;2023-03-23T04:14:05;97365.69;;;14.16;52.48
15884;BME280;8040;50.254;10.960;2023-03-23T04:16:31;97373.53;;;14.18;52.36
15884;BME280;8040;50.254;10.960;2023-03-23T04:18:59;97375.16;;;14.19;52.34
15884;BME280;8040;50.254;10.960;2023-03-23T04:21:25;97379.56;;;14.23;51.98
15884;BME280;8040;50.254;10.960;2023-03-23T04:23:53;97374.19;;;14.15;51.64
15884;BME280;8040;50.254;10.960;2023-03-23T04:26:19;97383.00;;;14.20;51.93
15884;BME280;8040;50.254;10.960;2023-03-23T04:28:44;97382.63;;;14.22;51.67
15884;BME280;8040;50.254;10.960;2023-03-23T04:31:09;97379.22;;;14.25;51.57
15884;BME280;8040;50.254;10.960;2023-03-23T04:33:38;97376.16;;;14.26;51.80
15884;BME280;8040;50.254;10.960;2023-03-23T04:36:06;97378.91;;;14.26;51.57
15884;BME280;8040;50.254;10.960;2023-03-23T04:38:32;97379.34;;;14.28;51.79
15884;BME280;8040;50.254;10.960;2023-03-23T04:40:59;97367.28;;;14.29;51.58
15884;BME280;8040;50.254;10.960;2023-03-23T04:43:27;97372.19;;;14.24;51.58
15884;BME280;8040;50.254;10.960;2023-03-23T04:45:53;97371.94;;;14.17;51.71
15884;BME280;8040;50.254;10.960;2023-03-23T04:48:22;97377.41;;;14.17;52.12
15884;BME280;8040;50.254;10.960;2023-03-23T04:50:48;97372.72;;;14.17;52.48
15884;BME280;8040;50.254;10.960;2023-03-23T04:53:15;97361.72;;;14.14;52.96
15884;BME280;8040;50.254;10.960;2023-03-23T04:55:43;97369.09;;;14.13;53.55
15884;BME280;8040;50.254;10.960;2023-03-23T04:58:08;97368.75;;;14.15;53.96
15884;BME280;8040;50.254;10.960;2023-03-23T05:00:34;97374.91;;;14.12;53.86
15884;BME280;8040;50.254;10.960;2023-03-23T05:03:00;97381.94;;;14.13;54.33
15884;BME280;8040;50.254;10.960;2023-03-23T05:05:26;97378.78;;;14.11;54.33
15884;BME280;8040;50.254;10.960;2023-03-23T05:07:52;97380.81;;;14.14;53.91
15884;BME280;8040;50.254;10.960;2023-03-23T05:10:17;97380.81;;;14.14;53.79
15884;BME280;8040;50.254;10.960;2023-03-23T05:12:43;97376.28;;;14.06;53.90
15884;BME280;8040;50.254;10.960;2023-03-23T05:15:09;97376.72;;;14.08;53.86
15884;BME280;8040;50.254;10.960;2023-03-23T05:17:35;97375.47;;;14.05;53.40
15884;BME280;8040;50.254;10.960;2023-03-23T05:20:00;97386.47;;;14.09;53.57
15884;BME280;8040;50.254;10.960;2023-03-23T05:22:27;97390.56;;;14.15;53.71
15884;BME280;8040;50.254;10.960;2023-03-23T05:24:55;97386.25;;;14.14;53.50
15884;BME280;8040;50.254;10.960;2023-03-23T05:27:20;97391.38;;;14.15;53.91
15884;BME280;8040;50.254;10.960;2023-03-23T05:29:46;97402.94;;;14.12;53.52
15884;BME280;8040;50.254;10.960;2023-03-23T05:32:14;97378.41;;;14.12;53.88
15884;BME280;8040;50.254;10.960;2023-03-23T05:34:40;97381.72;;;14.18;53.86
15884;BME280;8040;50.254;10.960;2023-03-23T05:37:05;97387.63;;;14.20;53.92
15884;BME280;8040;50.254;10.960;2023-03-23T05:39:30;97389.09;;;14.17;53.67
15884;BME280;8040;50.254;10.960;2023-03-23T05:41:57;97382.50;;;14.18;53.27
15884;BME280;8040;50.254;10.960;2023-03-23T05:44:23;97375.59;;;14.21;53.57
15884;BME280;8040;50.254;10.960;2023-03-23T05:46:49;97378.09;;;14.26;53.46
15884;BME280;8040;50.254;10.960;2023-03-23T05:49:15;97381.84;;;14.33;53.54
15884;BME280;8040;50.254;10.960;2023-03-23T05:51:44;97387.72;;;14.35;53.95
15884;BME280;8040;50.254;10.960;2023-03-23T05:54:11;97393.63;;;14.37;54.32
15884;BME280;8040;50.254;10.960;2023-03-23T05:56:36;97393.88;;;14.44;54.17
15884;BME280;8040;50.254;10.960;2023-03-23T05:59:02;97397.03;;;14.46;54.16
15884;BME280;8040;50.254;10.960;2023-03-23T06:01:27;97380.44;;;14.51;53.86
15884;BME280;8040;50.254;10.960;2023-03-23T06:03:53;97392.59;;;14.54;53.73
15884;BME280;8040;50.254;10.960;2023-03-23T06:06:19;97389.97;;;14.57;53.68
15884;BME280;8040;50.254;10.960;2023-03-23T06:08:45;97393.47;;;14.58;53.19
15884;BME280;8040;50.254;10.960;2023-03-23T06:11:10;97397.00;;;14.58;53.23
15884;BME280;8040;50.254;10.960;2023-03-23T06:13:35;97407.09;;;14.58;53.49
15884;BME280;8040;50.254;10.960;2023-03-23T06:16:02;97393.47;;;14.58;53.88
15884;BME280;8040;50.254;10.960;2023-03-23T06:18:27;97403.38;;;14.62;54.06
15884;BME280;8040;50.254;10.960;2023-03-23T06:20:53;97405.28;;;14.62;54.20
15884;BME280;8040;50.254;10.960;2023-03-23T06:23:18;97416.88;;;14.59;53.74
15884;BME280;8040;50.254;10.960;2023-03-23T06:25:44;97421.56;;;14.58;54.31
15884;BME280;8040;50.254;10.960;2023-03-23T06:28:09;97417.25;;;14.57;54.93
15884;BME280;8040;50.254;10.960;2023-03-23T06:30:36;97430.19;;;14.60;55.92
15884;BME280;8040;50.254;10.960;2023-03-23T06:33:01;97434.16;;;14.63;57.26
15884;BME280;8040;50.254;10.960;2023-03-23T06:35:30;97426.22;;;14.58;58.25
15884;BME280;8040;50.254;10.960;2023-03-23T06:37:55;97435.53;;;14.57;58.59
15884;BME280;8040;50.254;10.960;2023-03-23T06:40:23;97448.41;;;14.56;59.10
15884;BME280;8040;50.254;10.960;2023-03-23T06:42:48;97441.72;;;14.54;59.00
15884;BME280;8040;50.254;10.960;2023-03-23T06:45:14;97450.91;;;14.49;60.20
15884;BME280;8040;50.254;10.960;2023-03-23T06:47:39;97451.94;;;14.45;60.35
15884;BME280;8040;50.254;10.960;2023-03-23T06:50:04;97452.63;;;14.42;60.58
15884;BME280;8040;50.254;10.960;2023-03-23T06:52:30;97445.72;;;14.32;61.34
15884;BME280;8040;50.254;10.960;2023-03-23T06:54:55;97442.19;;;14.32;62.17
15884;BME280;8040;50.254;10.960;2023-03-23T06:57:21;97450.38;;;14.32;62.83
15884;BME280;8040;50.254;10.960;2023-03-23T06:59:46;97455.81;;;14.32;63.06
15884;BME280;8040;50.254;10.960;2023-03-23T07:02:12;97457.28;;;14.29;63.17
15884;BME280;8040;50.254;10.960;2023-03-23T07:04:39;97450.38;;;14.32;63.86
15884;BME280;8040;50.254;10.960;2023-03-23T07:07:05;97456.97;;;14.31;64.47
15884;BME280;8040;50.254;10.960;2023-03-23T07:09:32;97453.78;;;14.29;64.64
15884;BME280;8040;50.254;10.960;2023-03-23T07:11:57;97459.69;;;14.31;64.84
15884;BME280;8040;50.254;10.960;2023-03-23T07:14:23;97470.81;;;14.38;65.14
15884;BME280;8040;50.254;10.960;2023-03-23T07:16:48;97467.97;;;14.46;64.97
15884;BME280;8040;50.254;10.960;2023-03-23T07:19:14;97475.56;;;14.53;65.05
15884;BME280;8040;50.254;10.960;2023-03-23T07:21:40;97476.25;;;14.62;65.00
15884;BME280;8040;50.254;10.960;2023-03-23T07:24:06;97481.00;;;14.65;65.24
15884;BME280;8040;50.254;10.960;2023-03-23T07:26:31;97477.28;;;14.69;65.69
15884;BME280;8040;50.254;10.960;2023-03-23T07:28:57;97478.06;;;14.70;66.04
15884;BME280;8040;50.254;10.960;2023-03-23T07:31:22;97472.47;;;14.66;66.54
15884;BME280;8040;50.254;10.960;2023-03-23T07:33:48;97473.84;;;14.60;66.62
15884;BME280;8040;50.254;10.960;2023-03-23T07:36:13;97473.53;;;14.62;67.15
15884;BME280;8040;50.254;10.960;2023-03-23T07:38:38;97465.22;;;14.58;67.40
15884;BME280;8040;50.254;10.960;2023-03-23T07:41:04;97468.19;;;14.53;67.07
15884;BME280;8040;50.254;10.960;2023-03-23T07:43:30;97473.88;;;14.48;67.55
15884;BME280;8040;50.254;10.960;2023-03-23T07:45:55;97468.09;;;14.50;67.48
15884;BME280;8040;50.254;10.960;2023-03-23T07:48:21;97485.81;;;14.44;67.72
15884;BME280;8040;50.254;10.960;2023-03-23T07:50:47;97484.25;;;14.43;67.84
15884;BME280;8040;50.254;10.960;2023-03-23T07:53:12;97493.56;;;14.42;67.89
15884;BME280;8040;50.254;10.960;2023-03-23T07:55:37;97489.22;;;14.41;68.00
15884;BME280;8040;50.254;10.960;2023-03-23T07:58:03;97483.44;;;14.42;67.72
15884;BME280;8040;50.254;10.960;2023-03-23T08:00:28;97497.31;;;14.37;68.19
15884;BME280;8040;50.254;10.960;2023-03-23T08:02:55;97494.72;;;14.29;67.47
15884;BME280;8040;50.254;10.960;2023-03-23T08:05:21;97470.81;;;14.38;68.63
15884;BME280;8040;50.254;10.960;2023-03-23T08:07:47;97474.91;;;14.44;68.38
15884;BME280;8040;50.254;10.960;2023-03-23T08:10:13;97474.78;;;14.52;68.51
15884;BME280;8040;50.254;10.960;2023-03-23T08:12:40;97482.97;;;14.64;68.29
15884;BME280;8040;50.254;10.960;2023-03-23T08:15:06;97474.41;;;14.78;68.48
15884;BME280;8040;50.254;10.960;2023-03-23T08:17:32;97480.41;;;14.83;67.10
15884;BME280;8040;50.254;10.960;2023-03-23T08:19:59;97484.06;;;14.87;67.21
15884;BME280;8040;50.254;10.960;2023-03-23T08:22:25;97480.75;;;14.82;66.02
15884;BME280;8040;50.254;10.960;2023-03-23T08:24:50;97487.38;;;14.81;66.22
15884;BME280;8040;50.254;10.960;2023-03-23T08:27:15;97492.81;;;14.81;66.12
15884;BME280;8040;50.254;10.960;2023-03-23T08:29:43;97495.56;;;14.81;66.43
15884;BME280;8040;50.254;10.960;2023-03-23T08:32:09;97490.78;;;14.78;66.60
15884;BME280;8040;50.254;10.960;2023-03-23T08:34:34;97499.44;;;14.80;66.74
15884;BME280;8040;50.254;10.960;2023-03-23T08:36:59;97498.72;;;14.83;67.14
15884;BME280;8040;50.254;10.960;2023-03-23T08:39:25;97496.81;;;14.83;67.20
15884;BME280;8040;50.254;10.960;2023-03-23T08:41:50;97503.41;;;14.82;67.51
15884;BME280;8040;50.254;10.960;2023-03-23T08:44:15;97502.16;;;14.80;66.15
15884;BME280;8040;50.254;10.960;2023-03-23T08:46:41;97501.00;;;14.81;66.38
15884;BME280;8040;50.254;10.960;2023-03-23T08:49:06;97495.56;;;14.81;65.28
15884;BME280;8040;50.254;10.960;2023-03-23T08:51:32;97497.00;;;14.90;66.08
15884;BME280;8040;50.254;10.960;2023-03-23T08:53:57;97503.63;;;14.89;65.07
15884;BME280;8040;50.254;10.960;2023-03-23T08:56:23;97500.66;;;14.94;64.44
15884;BME280;8040;50.254;10.960;2023-03-23T08:58:49;97500.50;;;15.03;65.84
15884;BME280;8040;50.254;10.960;2023-03-23T09:01:15;97505.94;;;15.15;65.39
15884;BME280;8040;50.254;10.960;2023-03-23T09:03:40;97511.59;;;15.22;64.37
15884;BME280;8040;50.254;10.960;2023-03-23T09:06:06;97508.88;;;15.22;64.25
15884;BME280;8040;50.254;10.960;2023-03-23T09:08:33;97507.28;;;15.33;64.64
15884;BME280;8040;50.254;10.960;2023-03-23T09:10:59;97505.31;;;15.33;64.13
15884;BME280;8040;50.254;10.960;2023-03-23T09:13:24;97511.09;;;15.32;64.08
15884;BME280;8040;50.254;10.960;2023-03-23T09:15:50;97512.03;;;15.36;64.77
15884;BME280;8040;50.254;10.960;2023-03-23T09:18:16;97511.09;;;15.32;64.00
15884;BME280;8040;50.254;10.960;2023-03-23T09:20:42;97514.53;;;15.29;64.03
15884;BME280;8040;50.254;10.960;2023-03-23T09:23:08;97514.75;;;15.36;64.27
15884;BME280;8040;50.254;10.960;2023-03-23T09:25:34;97511.88;;;15.44;65.00
15884;BME280;8040;50.254;10.960;2023-03-23T09:28:00;97508.81;;;15.46;65.09
15884;BME280;8040;50.254;10.960;2023-03-23T09:30:30;97517.38;;;15.60;64.70
15884;BME280;8040;50.254;10.960;2023-03-23T09:32:56;97524.63;;;15.68;63.73
15884;BME280;8040;50.254;10.960;2023-03-23T09:35:21;97519.47;;;15.78;63.69
15884;BME280;8040;50.254;10.960;2023-03-23T09:37:48;97515.59;;;15.95;63.26
15884;BME280;8040;50.254;10.960;2023-03-23T09:40:19;97512.97;;;15.98;62.53
15884;BME280;8040;50.254;10.960;2023-03-23T09:50:40;97530.88;;;16.26;62.39
15884;BME280;8040;50.254;10.960;2023-03-23T09:55:38;97536.00;;;16.13;62.50
15884;BME280;8040;50.254;10.960;2023-03-23T09:58:09;97534.22;;;16.04;61.95
15884;BME280;8040;50.254;10.960;2023-03-23T10:00:36;97535.53;;;15.95;62.85
15884;BME280;8040;50.254;10.960;2023-03-23T10:03:21;97499.69;;;15.69;62.64
15884;BME280;8040;50.254;10.960;2023-03-23T10:05:51;97538.25;;;15.80;62.81
15884;BME280;8040;50.254;10.960;2023-03-23T10:08:27;97546.69;;;15.75;62.23
15884;BME280;8040;50.254;10.960;2023-03-23T10:11:01;97546.25;;;15.73;63.13
15884;BME280;8040;50.254;10.960;2023-03-23T10:15:55;97560.53;;;15.66;63.74
15884;BME280;8040;50.254;10.960;2023-03-23T10:18:24;97580.22;;;15.72;63.98
15884;BME280;8040;50.254;10.960;2023-03-23T10:20:59;97573.06;;;15.67;64.43
15884;BME280;8040;50.254;10.960;2023-03-23T10:23:37;97579.22;;;15.64;65.63
15884;BME280;8040;50.254;10.960;2023-03-23T10:26:11;97574.56;;;15.65;66.17
15884;BME280;8040;50.254;10.960;2023-03-23T10:28:39;97580.41;;;15.79;67.63
15884;BME280;8040;50.254;10.960;2023-03-23T10:31:10;97577.69;;;15.79;66.70
15884;BME280;8040;50.254;10.960;2023-03-23T10:33:41;97574.44;;;15.89;67.92
15884;BME280;8040;50.254;10.960;2023-03-23T10:38:38;97579.25;;;15.80;67.17
15884;BME280;8040;50.254;10.960;2023-03-23T10:41:07;97578.91;;;15.81;67.37
15884;BME280;8040;50.254;10.960;2023-03-23T10:43:36;97576.53;;;15.80;67.84
15884;BME280;8040;50.254;10.960;2023-03-23T10:46:02;97577.34;;;15.80;67.63
15884;BME280;8040;50.254;10.960;2023-03-23T10:48:30;97574.44;;;15.89;68.47
15884;BME280;8040;50.254;10.960;2023-03-23T10:50:58;97568.00;;;15.97;68.89
15884;BME280;8040;50.254;10.960;2023-03-23T10:53:32;97564.03;;;15.94;68.77
15884;BME280;8040;50.254;10.960;2023-03-23T10:55:59;97573.03;;;15.95;68.26
15884;BME280;8040;50.254;10.960;2023-03-23T10:58:26;97568.09;;;16.00;68.77
15884;BME280;8040;50.254;10.960;2023-03-23T11:00:54;97564.69;;;16.03;69.35
15884;BME280;8040;50.254;10.960;2023-03-23T11:03:22;97557.81;;;16.09;69.36
15884;BME280;8040;50.254;10.960;2023-03-23T11:05:49;97555.59;;;16.14;70.06
15884;BME280;8040;50.254;10.960;2023-03-23T11:08:16;97551.44;;;16.20;69.25
15884;BME280;8040;50.254;10.960;2023-03-23T11:13:29;97542.13;;;16.52;69.62
15884;BME280;8040;50.254;10.960;2023-03-23T11:15:55;97540.41;;;16.79;68.50
15884;BME280;8040;50.254;10.960;2023-03-23T11:18:42;97555.16;;;16.90;67.96
15884;BME280;8040;50.254;10.960;2023-03-23T11:21:08;97557.78;;;17.02;66.11
15884;BME280;8040;50.254;10.960;2023-03-23T11:23:37;97556.63;;;17.22;64.71
15884;BME280;8040;50.254;10.960;2023-03-23T11:26:14;97554.19;;;17.36;64.64
15884;BME280;8040;50.254;10.960;2023-03-23T11:29:31;97556.41;;;17.46;63.00
15884;BME280;8040;50.254;10.960;2023-03-23T11:31:34;97563.91;;;17.68;62.81
15884;BME280;8040;50.254;10.960;2023-03-23T11:36:36;97562.34;;;18.08;60.14
15884;BME280;8040;50.254;10.960;2023-03-23T11:39:03;97548.47;;;18.20;57.96
15884;BME280;8040;50.254;10.960;2023-03-23T11:41:43;97553.38;;;18.11;58.77
15884;BME280;8040;50.254;10.960;2023-03-23T11:44:10;97546.31;;;18.10;59.37
15884;BME280;8040;50.254;10.960;2023-03-23T11:46:50;97546.59;;;18.05;58.52
15884;BME280;8040;50.254;10.960;2023-03-23T11:49:27;97541.84;;;18.02;59.03
15884;BME280;8040;50.254;10.960;2023-03-23T11:52:01;97538.47;;;17.90;59.28
15884;BME280;8040;50.254;10.960;2023-03-23T11:54:34;97549.75;;;17.85;57.89
15884;BME280;8040;50.254;10.960;2023-03-23T11:57:06;97564.19;;;17.82;57.79
15884;BME280;8040;50.254;10.960;2023-03-23T11:59:32;97557.50;;;17.60;57.28
15884;BME280;8040;50.254;10.960;2023-03-23T12:02:12;97562.97;;;17.41;58.36
15884;BME280;8040;50.254;10.960;2023-03-23T12:07:37;97553.72;;;16.96;58.95
15884;BME280;8040;50.254;10.960;2023-03-23T12:12:46;97564.19;;;16.44;58.82
15884;BME280;8040;50.254;10.960;2023-03-23T12:22:57;97580.22;;;16.14;60.30
15884;BME280;8040;50.254;10.960;2023-03-23T12:33:13;97575.56;;;16.30;62.76
15884;BME280;8040;50.254;10.960;2023-03-23T12:35:46;97580.22;;;16.14;63.02
15884;BME280;8040;50.254;10.960;2023-03-23T12:38:23;97578.00;;;16.04;64.03
15884;BME280;8040;50.254;10.960;2023-03-23T12:43:45;97574.13;;;16.06;65.75
15884;BME280;8040;50.254;10.960;2023-03-23T12:48:49;97574.00;;;16.02;65.91
15884;BME280;8040;50.254;10.960;2023-03-23T12:51:22;97559.72;;;16.08;66.11
15884;BME280;8040;50.254;10.960;2023-03-23T12:53:55;97560.38;;;16.17;66.02
15884;BME280;8040;50.254;10.960;2023-03-23T12:56:24;97551.72;;;16.15;65.37
15884;BME280;8040;50.254;10.960;2023-03-23T12:58:53;97550.56;;;16.16;65.02
15884;BME280;8040;50.254;10.960;2023-03-23T13:01:23;97555.69;;;16.18;65.80
15884;BME280;8040;50.254;10.960;2023-03-23T13:11:50;97543.16;;;16.17;64.77
15884;BME280;8040;50.254;10.960;2023-03-23T13:19:10;97529.63;;;16.08;63.93
15884;BME280;8040;50.254;10.960;2023-03-23T13:24:03;97519.41;;;16.06;62.10
15884;BME280;8040;50.254;10.960;2023-03-23T13:26:29;97521.34;;;16.05;62.53
15884;BME280;8040;50.254;10.960;2023-03-23T13:31:38;97514.56;;;16.14;62.80
15884;BME280;8040;50.254;10.960;2023-03-23T13:34:21;97513.56;;;16.22;62.58
15884;BME280;8040;50.254;10.960;2023-03-23T13:37:00;97514.22;;;16.16;61.59
15884;BME280;8040;50.254;10.960;2023-03-23T13:40:13;97520.38;;;16.13;61.74
15884;BME280;8040;50.254;10.960;2023-03-23T13:42:25;97511.38;;;15.97;61.26
15884;BME280;8040;50.254;10.960;2023-03-23T13:49:52;97509.41;;;15.82;61.54
15884;BME280;8040;50.254;10.960;2023-03-23T13:52:36;97505.34;;;15.76;61.47
15884;BME280;8040;50.254;10.960;2023-03-23T13:55:22;97501.34;;;15.74;61.98
15884;BME280;8040;50.254;10.960;2023-03-23T14:02:58;97485.91;;;15.66;61.44
15884;BME280;8040;50.254;10.960;2023-03-23T14:05:28;97466.50;;;15.55;61.12
15884;BME280;8040;50.254;10.960;2023-03-23T14:08:02;97473.47;;;15.53;61.53
15884;BME280;8040;50.254;10.960;2023-03-23T14:10:39;97466.84;;;15.54;61.62
15884;BME280;8040;50.254;10.960;2023-03-23T14:13:10;97469.16;;;15.52;61.42
15884;BME280;8040;50.254;10.960;2023-03-23T14:15:43;97482.09;;;15.55;62.09
15884;BME280;8040;50.254;10.960;2023-03-23T14:18:12;97486.78;;;15.54;61.67
15884;BME280;8040;50.254;10.960;2023-03-23T14:20:38;97488.03;;;15.57;61.75
15884;BME280;8040;50.254;10.960;2023-03-23T14:23:05;97493.94;;;15.59;61.76
15884;BME280;8040;50.254;10.960;2023-03-23T14:25:30;97479.84;;;15.57;61.83
15884;BME280;8040;50.254;10.960;2023-03-23T14:27:58;97474.97;;;15.50;61.77
15884;BME280;8040;50.254;10.960;2023-03-23T14:30:27;97471.50;;;15.53;61.95
15884;BME280;8040;50.254;10.960;2023-03-23T14:33:06;97476.03;;;15.61;62.36
15884;BME280;8040;50.254;10.960;2023-03-23T14:35:34;97480.03;;;15.64;62.21
15884;BME280;8040;50.254;10.960;2023-03-23T14:38:00;97486.44;;;15.71;61.81
15884;BME280;8040;50.254;10.960;2023-03-23T14:40:27;97485.91;;;15.66;61.52
15884;BME280;8040;50.254;10.960;2023-03-23T14:42:53;97486.44;;;15.71;61.74